createdAt,value
2018-01-21T00:00:59.640Z,0.60
2018-01-21T00:03:28.017Z,0.80
2018-01-21T00:05:56.369Z,0.80
2018-01-21T00:08:23.996Z,0.70
2018-01-21T00:10:51.622Z,0.90
2018-01-21T00:13:19.226Z,1.00
2018-01-21T00:15:46.816Z,0.80
2018-01-21T00:18:14.418Z,1.00
2018-01-21T00:20:42.802Z,2.10
2018-01-21T00:23:11.178Z,1.23
2018-01-21T00:25:40.292Z,0.97
2018-01-21T00:28:07.975Z,0.90
2018-01-21T00:30:36.338Z,0.80
2018-01-21T00:33:03.936Z,0.90
2018-01-21T00:35:31.826Z,0.90
2018-01-21T00:37:59.442Z,1.83
2018-01-21T00:40:27.037Z,0.90
2018-01-21T00:42:54.661Z,1.10
2018-01-21T00:45:23.761Z,0.60
2018-01-21T00:47:52.876Z,0.60
2018-01-21T00:50:21.246Z,0.70
2018-01-21T00:52:49.731Z,0.80
2018-01-21T00:55:18.841Z,0.70
2018-01-21T00:57:47.234Z,0.80
2018-01-21T01:00:15.581Z,1.07
2018-01-21T01:02:43.197Z,0.80
2018-01-21T01:05:10.828Z,0.67
2018-01-21T01:07:39.243Z,0.70
2018-01-21T01:10:07.750Z,0.80
2018-01-21T01:12:35.347Z,1.00
2018-01-21T01:15:02.992Z,0.97
2018-01-21T01:17:30.587Z,1.70
2018-01-21T01:19:58.191Z,5.43
2018-01-21T01:22:26.566Z,1.20
2018-01-21T01:24:54.925Z,1.77
2018-01-21T01:27:22.621Z,1.53
2018-01-21T01:29:50.981Z,1.67
2018-01-21T01:32:24.183Z,1.20
2018-01-21T01:34:51.777Z,1.00
2018-01-21T01:37:19.391Z,0.80
2018-01-21T01:39:47.003Z,0.80
2018-01-21T01:42:14.586Z,1.03
2018-01-21T01:44:42.267Z,0.70
2018-01-21T01:47:09.872Z,0.70
2018-01-21T01:49:37.499Z,0.70
2018-01-21T01:52:05.174Z,0.80
2018-01-21T01:54:32.770Z,3.20
2018-01-21T01:57:01.178Z,0.80
2018-01-21T01:59:28.894Z,1.90
2018-01-21T02:01:56.530Z,1.13
2018-01-21T02:04:24.154Z,0.97
2018-01-21T02:06:52.538Z,1.00
2018-01-21T02:09:20.132Z,0.80
2018-01-21T02:11:47.720Z,1.00
2018-01-21T02:14:15.318Z,2.10
2018-01-21T02:16:42.908Z,0.80
2018-01-21T02:19:11.322Z,0.70
2018-01-21T02:21:38.912Z,1.13
2018-01-21T02:24:06.550Z,0.90
2018-01-21T02:26:34.134Z,1.20
2018-01-21T02:29:01.992Z,0.77
2018-01-21T02:31:29.602Z,0.90
2018-01-21T02:33:57.188Z,3.93
2018-01-21T02:36:25.569Z,0.97
2018-01-21T02:38:53.979Z,0.80
2018-01-21T02:41:21.575Z,0.77
2018-01-21T02:43:49.174Z,3.00
2018-01-21T02:46:16.761Z,1.90
2018-01-21T02:48:45.226Z,2.17
2018-01-21T02:51:13.581Z,1.97
2018-01-21T02:53:41.184Z,4.10
2018-01-21T02:56:09.553Z,1.20
2018-01-21T02:58:37.912Z,0.90
2018-01-21T03:01:05.531Z,1.30
2018-01-21T03:03:33.144Z,1.50
2018-01-21T03:06:00.775Z,1.50
2018-01-21T03:08:28.383Z,3.20
2018-01-21T03:10:55.971Z,1.87
2018-01-21T03:13:23.583Z,3.80
2018-01-21T03:15:51.169Z,2.30
2018-01-21T03:18:18.775Z,2.57
2018-01-21T03:20:47.145Z,2.50
2018-01-21T03:23:15.530Z,2.77
2018-01-21T03:25:43.207Z,2.87
2018-01-21T03:28:11.951Z,2.13
2018-01-21T03:30:39.593Z,2.57
2018-01-21T03:33:07.185Z,2.63
2018-01-21T03:35:34.785Z,2.93
2018-01-21T03:38:03.162Z,3.33
2018-01-21T03:40:30.771Z,3.30
2018-01-21T03:42:58.354Z,4.00
2018-01-21T03:45:25.948Z,2.90
2018-01-21T03:47:53.706Z,3.47
2018-01-21T03:50:21.336Z,2.50
2018-01-21T03:52:48.966Z,2.50
2018-01-21T03:55:17.366Z,3.00
2018-01-21T03:57:46.058Z,2.60
2018-01-21T04:00:14.420Z,3.93
2018-01-21T04:02:43.520Z,3.53
2018-01-21T04:05:11.902Z,2.90
2018-01-21T04:07:39.496Z,3.67
2018-01-21T04:10:07.908Z,34.80
2018-01-21T04:12:35.700Z,2.37
2018-01-21T04:15:03.586Z,2.60
2018-01-21T04:17:31.173Z,3.10
2018-01-21T04:19:59.534Z,2.90
2018-01-21T04:22:27.913Z,2.70
2018-01-21T04:24:55.515Z,2.50
2018-01-21T04:27:24.151Z,2.80
2018-01-21T04:29:51.750Z,2.60
2018-01-21T04:32:20.111Z,2.63
2018-01-21T04:34:47.742Z,2.40
2018-01-21T04:37:15.337Z,2.27
2018-01-21T04:39:42.960Z,2.50
2018-01-21T04:42:10.543Z,2.27
2018-01-21T04:44:38.129Z,2.80
2018-01-21T04:47:05.739Z,4.07
2018-01-21T04:49:34.101Z,2.23
2018-01-21T04:52:03.225Z,2.37
2018-01-21T04:54:31.601Z,1.80
2018-01-21T04:56:59.965Z,2.90
2018-01-21T04:59:27.579Z,2.40
2018-01-21T05:01:55.171Z,2.23
2018-01-21T05:04:22.815Z,2.43
2018-01-21T05:06:50.419Z,2.37
2018-01-21T05:09:17.999Z,21.33
2018-01-21T05:11:46.389Z,2.47
2018-01-21T05:14:14.813Z,3.07
2018-01-21T05:16:42.427Z,4.00
2018-01-21T05:19:10.013Z,3.37
2018-01-21T05:21:38.365Z,3.67
2018-01-21T05:24:05.982Z,3.30
2018-01-21T05:26:33.574Z,2.50
2018-01-21T05:29:01.192Z,3.10
2018-01-21T05:31:29.715Z,3.30
2018-01-21T05:33:57.340Z,3.70
2018-01-21T05:36:25.700Z,5.83
2018-01-21T05:38:54.800Z,3.10
2018-01-21T05:41:22.468Z,4.73
2018-01-21T05:43:51.587Z,4.03
2018-01-21T05:46:19.966Z,4.73
2018-01-21T05:48:48.340Z,4.00
2018-01-21T05:51:15.968Z,4.50
2018-01-21T05:53:43.590Z,4.73
2018-01-21T05:56:11.962Z,3.83
2018-01-21T05:58:40.372Z,3.00
2018-01-21T06:01:07.962Z,3.50
2018-01-21T06:03:35.580Z,5.20
2018-01-21T06:06:03.930Z,2.90
2018-01-21T06:08:31.525Z,3.27
2018-01-21T06:10:59.212Z,5.30
2018-01-21T06:13:27.569Z,3.57
2018-01-21T06:15:55.278Z,3.67
2018-01-21T06:18:22.864Z,4.17
2018-01-21T06:20:50.479Z,4.27
2018-01-21T06:23:18.842Z,4.00
2018-01-21T06:25:46.502Z,3.80
2018-01-21T06:28:14.125Z,4.27
2018-01-21T06:30:41.723Z,3.50
2018-01-21T06:33:09.335Z,4.03
2018-01-21T06:35:37.712Z,4.30
2018-01-21T06:38:06.069Z,3.93
2018-01-21T06:40:35.190Z,9.80
2018-01-21T06:43:03.559Z,5.43
2018-01-21T06:45:32.655Z,4.47
2018-01-21T06:48:00.319Z,5.07
2018-01-21T06:50:28.676Z,3.47
2018-01-21T06:52:56.305Z,3.97
2018-01-21T06:55:24.663Z,4.00
2018-01-21T06:57:53.793Z,4.63
2018-01-21T07:00:21.387Z,4.20
2018-01-21T07:02:49.007Z,4.07
2018-01-21T07:05:17.378Z,3.87
2018-01-21T07:07:44.988Z,3.90
2018-01-21T07:10:12.614Z,4.30
2018-01-21T07:12:40.976Z,4.13
2018-01-21T07:15:08.599Z,3.90
2018-01-21T07:17:36.323Z,6.00
2018-01-21T07:20:04.727Z,5.77
2018-01-21T07:22:33.088Z,5.60
2018-01-21T07:25:00.718Z,7.03
2018-01-21T07:27:28.324Z,34.87
2018-01-21T07:29:55.918Z,4.90
2018-01-21T07:32:23.526Z,7.00
2018-01-21T07:34:51.149Z,6.63
2018-01-21T07:37:18.772Z,6.10
2018-01-21T07:39:46.362Z,4.40
2018-01-21T07:42:14.714Z,7.43
2018-01-21T07:44:42.310Z,5.03
2018-01-21T07:47:10.670Z,4.73
2018-01-21T07:49:39.052Z,4.00
2018-01-21T07:52:06.674Z,5.73
2018-01-21T07:54:34.306Z,5.30
2018-01-21T07:57:02.663Z,4.87
2018-01-21T07:59:31.786Z,5.30
2018-01-21T08:02:00.225Z,5.67
2018-01-21T08:04:28.009Z,5.20
2018-01-21T08:06:55.634Z,8.97
2018-01-21T08:09:23.371Z,8.93
2018-01-21T08:11:51.018Z,7.03
2018-01-21T08:14:18.682Z,9.10
2018-01-21T08:16:46.308Z,5.60
2018-01-21T08:19:13.946Z,7.10
2018-01-21T08:21:42.308Z,5.30
2018-01-21T08:24:09.918Z,5.77
2018-01-21T08:26:37.693Z,5.47
2018-01-21T08:29:05.283Z,4.87
2018-01-21T08:31:32.942Z,5.30
2018-01-21T08:34:06.298Z,5.13
2018-01-21T08:36:40.356Z,4.67
2018-01-21T08:39:13.460Z,6.23
2018-01-21T08:41:58.762Z,6.00
2018-01-21T08:44:27.120Z,6.17
2018-01-21T08:46:54.719Z,5.53
2018-01-21T08:49:23.104Z,7.47
2018-01-21T08:51:51.456Z,9.40
2018-01-21T08:54:19.103Z,16.70
2018-01-21T08:56:46.704Z,5.40
2018-01-21T08:59:15.071Z,4.67
2018-01-21T09:01:42.788Z,4.23
2018-01-21T09:04:10.419Z,3.77
2018-01-21T09:06:38.033Z,5.90
2018-01-21T09:09:05.715Z,5.10
2018-01-21T09:11:33.343Z,5.03
2018-01-21T09:14:00.947Z,6.60
2018-01-21T09:16:28.565Z,8.60
2018-01-21T09:18:56.943Z,9.60
2018-01-21T09:21:25.326Z,5.43
2018-01-21T09:23:53.734Z,7.00
2018-01-21T09:26:21.345Z,12.93
2018-01-21T09:28:48.979Z,6.70
2018-01-21T09:31:16.589Z,11.27
2018-01-21T09:33:44.947Z,11.63
2018-01-21T09:36:12.742Z,11.60
2018-01-21T09:38:41.129Z,19.40
2018-01-21T09:41:08.790Z,18.57
2018-01-21T09:43:36.455Z,38.83
2018-01-21T09:46:04.861Z,24.90
2018-01-21T09:48:33.253Z,36.00
2018-01-21T09:51:01.623Z,91.27
2018-01-21T09:53:29.261Z,38.20
2018-01-21T09:55:56.978Z,13.90
2018-01-21T09:58:24.619Z,8.90
2018-01-21T10:00:52.233Z,5.93
2018-01-21T10:03:19.829Z,13.87
2018-01-21T10:05:47.458Z,11.20
2018-01-21T10:08:15.061Z,15.57
2018-01-21T10:10:43.534Z,10.00
2018-01-21T10:13:11.166Z,6.77
2018-01-21T10:15:38.872Z,9.40
2018-01-21T10:18:06.536Z,7.90
2018-01-21T10:20:34.144Z,5.40
2018-01-21T10:23:02.558Z,10.00
2018-01-21T10:25:30.186Z,6.00
2018-01-21T10:27:58.554Z,6.13
2018-01-21T10:30:27.715Z,5.70
2018-01-21T10:32:55.354Z,16.47
2018-01-21T10:35:23.120Z,19.77
2018-01-21T10:37:50.744Z,14.40
2018-01-21T10:40:18.401Z,14.30
2018-01-21T10:42:46.034Z,7.87
2018-01-21T10:45:13.685Z,14.30
2018-01-21T10:47:42.586Z,11.13
2018-01-21T10:50:10.212Z,9.67
2018-01-21T10:52:37.890Z,6.23
2018-01-21T10:55:05.502Z,8.07
2018-01-21T10:57:33.200Z,9.40
2018-01-21T11:00:00.856Z,6.40
2018-01-21T11:02:28.517Z,18.60
2018-01-21T11:04:56.255Z,16.80
2018-01-21T11:07:23.927Z,10.23
2018-01-21T11:09:51.597Z,15.70
2018-01-21T11:12:19.213Z,9.87
2018-01-21T11:14:46.953Z,20.93
2018-01-21T11:17:14.589Z,8.37
2018-01-21T11:19:42.244Z,20.40
2018-01-21T11:22:10.906Z,9.17
2018-01-21T11:24:39.340Z,15.60
2018-01-21T11:27:07.005Z,15.13
2018-01-21T11:29:34.644Z,10.50
2018-01-21T11:32:03.043Z,10.00
2018-01-21T11:34:31.544Z,15.10
2018-01-21T11:36:59.241Z,16.17
2018-01-21T11:39:26.876Z,14.00
2018-01-21T11:41:54.509Z,12.30
2018-01-21T11:44:22.991Z,12.90
2018-01-21T11:46:51.387Z,11.13
2018-01-21T11:49:19.760Z,9.97
2018-01-21T11:51:47.407Z,12.27
2018-01-21T11:54:15.035Z,17.27
2018-01-21T11:56:42.694Z,7.60
2018-01-21T11:59:10.314Z,6.80
2018-01-21T12:01:39.471Z,8.53
2018-01-21T12:04:07.228Z,5.40
2018-01-21T12:06:34.989Z,4.17
2018-01-21T12:09:02.612Z,6.50
2018-01-21T12:11:32.688Z,6.60
2018-01-21T12:14:00.345Z,5.73
2018-01-21T12:16:27.997Z,4.60
2018-01-21T12:18:55.614Z,5.77
2018-01-21T12:21:23.255Z,6.60
2018-01-21T12:23:50.883Z,7.03
2018-01-21T12:26:18.505Z,6.23
2018-01-21T12:28:46.124Z,10.77
2018-01-21T12:31:14.518Z,8.43
2018-01-21T12:33:42.168Z,6.67
2018-01-21T12:36:10.609Z,6.97
2018-01-21T12:38:38.261Z,5.83
2018-01-21T12:41:05.860Z,6.07
2018-01-21T12:43:33.593Z,7.87
2018-01-21T12:46:01.205Z,7.53
2018-01-21T12:48:28.840Z,10.97
2018-01-21T12:50:56.462Z,6.10
2018-01-21T12:53:25.283Z,11.87
2018-01-21T12:55:52.980Z,7.40
2018-01-21T12:58:20.629Z,6.50
2018-01-21T13:00:48.292Z,6.70
2018-01-21T13:03:16.035Z,6.70
2018-01-21T13:05:43.669Z,9.63
2018-01-21T13:08:11.315Z,7.17
2018-01-21T13:10:38.981Z,9.70
2018-01-21T13:13:07.801Z,4.47
2018-01-21T13:15:35.415Z,7.20
2018-01-21T13:18:03.067Z,5.83
2018-01-21T13:20:30.715Z,6.00
2018-01-21T13:22:59.252Z,7.33
2018-01-21T13:25:26.943Z,8.50
2018-01-21T13:27:54.650Z,10.43
2018-01-21T13:30:22.310Z,12.00
2018-01-21T13:32:49.911Z,5.33
2018-01-21T13:35:17.528Z,6.83
2018-01-21T13:37:46.174Z,8.40
2018-01-21T13:40:13.840Z,11.50
2018-01-21T13:42:41.550Z,16.30
2018-01-21T13:45:09.951Z,7.03
2018-01-21T13:47:37.616Z,11.70
2018-01-21T13:50:05.246Z,8.63
2018-01-21T13:52:32.974Z,11.00
2018-01-21T13:55:00.695Z,8.87
2018-01-21T13:57:28.313Z,10.73
2018-01-21T13:59:56.101Z,6.53
2018-01-21T14:02:23.716Z,13.73
2018-01-21T14:04:51.430Z,23.13
2018-01-21T14:07:19.076Z,10.80
2018-01-21T14:09:46.731Z,9.23
2018-01-21T14:12:14.375Z,10.80
2018-01-21T14:14:42.747Z,10.20
2018-01-21T14:17:10.379Z,6.13
2018-01-21T14:19:38.048Z,7.10
2018-01-21T14:22:05.681Z,6.83
2018-01-21T14:24:33.329Z,6.40
2018-01-21T14:27:01.729Z,4.97
2018-01-21T14:29:29.733Z,7.90
2018-01-21T14:31:57.391Z,10.67
2018-01-21T14:34:25.005Z,5.90
2018-01-21T14:36:53.422Z,9.57
2018-01-21T14:39:21.049Z,9.00
2018-01-21T14:41:49.625Z,7.50
2018-01-21T14:44:17.275Z,5.80
2018-01-21T14:46:44.956Z,5.13
2018-01-21T14:49:13.360Z,5.63
2018-01-21T14:51:41.757Z,6.80
2018-01-21T14:54:10.179Z,11.20
2018-01-21T14:56:37.818Z,11.13
2018-01-21T14:59:05.467Z,5.93
2018-01-21T15:01:33.873Z,6.10
2018-01-21T15:04:01.543Z,9.33
2018-01-21T15:06:29.273Z,16.00
2018-01-21T15:08:57.695Z,9.33
2018-01-21T15:11:25.380Z,12.43
2018-01-21T15:13:53.124Z,6.03
2018-01-21T15:16:20.805Z,8.83
2018-01-21T15:18:48.430Z,10.03
2018-01-21T15:21:16.076Z,11.47
2018-01-21T15:23:43.791Z,6.00
2018-01-21T15:26:11.570Z,8.23
2018-01-21T15:28:39.237Z,9.97
2018-01-21T15:31:06.922Z,6.27
2018-01-21T15:33:34.644Z,5.77
2018-01-21T15:36:03.120Z,6.10
2018-01-21T15:38:31.579Z,14.63
2018-01-21T15:40:59.274Z,8.60
2018-01-21T15:43:27.711Z,7.73
2018-01-21T15:45:55.408Z,6.60
2018-01-21T15:48:23.032Z,9.13
2018-01-21T15:50:50.652Z,6.47
2018-01-21T15:53:18.302Z,7.90
2018-01-21T15:55:47.458Z,19.07
2018-01-21T15:58:15.148Z,12.97
2018-01-21T16:00:42.827Z,11.80
2018-01-21T16:03:10.570Z,8.40
2018-01-21T16:05:38.280Z,10.40
2018-01-21T16:08:06.664Z,8.73
2018-01-21T16:10:34.495Z,9.90
2018-01-21T16:13:02.121Z,11.37
2018-01-21T16:15:30.650Z,13.40
2018-01-21T16:17:58.354Z,13.83
2018-01-21T16:20:26.026Z,11.93
2018-01-21T16:22:55.164Z,8.80
2018-01-21T16:25:22.947Z,11.60
2018-01-21T16:27:50.627Z,26.50
2018-01-21T16:30:18.339Z,10.90
2018-01-21T16:32:46.771Z,11.63
2018-01-21T16:35:15.061Z,10.20
2018-01-21T16:37:54.536Z,20.60
2018-01-21T16:40:22.232Z,8.57
2018-01-21T16:42:49.941Z,10.73
2018-01-21T16:45:17.574Z,8.60
2018-01-21T16:47:45.215Z,14.50
2018-01-21T16:50:13.719Z,14.23
2018-01-21T16:52:42.130Z,11.80
2018-01-21T16:55:09.784Z,10.20
2018-01-21T16:57:37.494Z,8.33
2018-01-21T17:00:05.163Z,8.00
2018-01-21T17:02:32.805Z,6.17
2018-01-21T17:05:00.608Z,7.93
2018-01-21T17:07:29.088Z,8.53
2018-01-21T17:09:56.884Z,21.73
2018-01-21T17:12:25.727Z,12.27
2018-01-21T17:14:53.459Z,10.07
2018-01-21T17:17:22.943Z,6.63
2018-01-21T17:19:51.387Z,9.40
2018-01-21T17:22:19.133Z,6.53
2018-01-21T17:24:46.842Z,7.40
2018-01-21T17:27:15.390Z,7.13
2018-01-21T17:29:43.790Z,7.77
2018-01-21T17:32:11.581Z,6.53
2018-01-21T17:34:39.236Z,8.80
2018-01-21T17:37:06.923Z,8.07
2018-01-21T17:39:35.524Z,8.63
2018-01-21T17:42:03.952Z,6.50
2018-01-21T17:44:31.749Z,5.87
2018-01-21T17:47:01.078Z,5.53
2018-01-21T17:49:29.610Z,8.10
2018-01-21T17:51:57.313Z,6.90
2018-01-21T17:54:24.993Z,7.50
2018-01-21T17:56:53.430Z,6.80
2018-01-21T17:59:21.193Z,10.83
2018-01-21T18:01:49.135Z,10.80
2018-01-21T18:04:17.808Z,5.93
2018-01-21T18:06:45.502Z,10.57
2018-01-21T18:09:14.476Z,9.10
2018-01-21T18:11:42.916Z,11.70
2018-01-21T18:14:10.609Z,7.90
2018-01-21T18:16:38.958Z,6.83
2018-01-21T18:19:08.244Z,6.93
2018-01-21T18:21:35.900Z,9.47
2018-01-21T18:24:04.658Z,8.23
2018-01-21T18:26:32.378Z,9.03
2018-01-21T18:29:00.147Z,9.57
2018-01-21T18:31:27.849Z,19.57
2018-01-21T18:33:55.610Z,14.50
2018-01-21T18:36:23.305Z,11.20
2018-01-21T18:38:51.025Z,11.83
2018-01-21T18:41:18.755Z,12.87
2018-01-21T18:43:47.313Z,12.33
2018-01-21T18:46:15.006Z,10.93
2018-01-21T18:48:44.278Z,12.80
2018-01-21T18:51:11.987Z,13.73
2018-01-21T18:53:40.745Z,12.23
2018-01-21T18:56:08.499Z,10.57
2018-01-21T18:58:36.252Z,8.00
2018-01-21T19:01:03.981Z,7.60
2018-01-21T19:03:31.767Z,11.13
2018-01-21T19:06:00.286Z,10.20
2018-01-21T19:08:27.971Z,8.97
2018-01-21T19:10:55.716Z,12.60
2018-01-21T19:13:23.756Z,12.97
2018-01-21T19:15:52.243Z,16.90
2018-01-21T19:18:21.354Z,52.00
2018-01-21T19:20:49.862Z,18.40
2018-01-21T19:23:17.743Z,10.03
2018-01-21T19:25:45.563Z,13.87
2018-01-21T19:28:14.081Z,14.17
2018-01-21T19:30:41.863Z,12.17
2018-01-21T19:33:09.680Z,12.43
2018-01-21T19:35:38.324Z,15.83
2018-01-21T19:38:06.341Z,19.97
2018-01-21T19:40:48.507Z,21.47
2018-01-21T19:43:31.120Z,35.03
2018-01-21T19:45:59.797Z,20.73
2018-01-21T19:48:28.169Z,25.43
2018-01-21T19:50:55.899Z,14.57
2018-01-21T19:53:23.694Z,23.10
2018-01-21T19:55:51.469Z,24.27
2018-01-21T19:58:19.301Z,24.67
2018-01-21T20:00:47.560Z,129.00
2018-01-21T20:03:15.293Z,146.10
2018-01-21T20:05:43.182Z,57.47
2018-01-21T20:08:10.975Z,35.40
2018-01-21T20:10:38.722Z,32.90
2018-01-21T20:13:10.355Z,27.77
2018-01-21T20:15:38.143Z,52.27
2018-01-21T20:18:05.944Z,55.77
2018-01-21T20:20:33.782Z,122.90
2018-01-21T20:23:01.655Z,112.07
2018-01-21T20:25:30.856Z,99.20
2018-01-21T20:27:58.928Z,101.60
2018-01-21T20:30:26.667Z,103.67
2018-01-21T20:32:55.888Z,92.37
2018-01-21T20:35:24.691Z,60.43
2018-01-21T20:37:52.489Z,36.83
2018-01-21T20:40:20.261Z,34.07
2018-01-21T20:42:48.103Z,23.50
2018-01-21T20:45:16.897Z,20.50
2018-01-21T20:47:44.661Z,18.63
2018-01-21T20:50:12.571Z,21.17
2018-01-21T20:52:46.138Z,14.00
2018-01-21T20:55:13.862Z,22.27
2018-01-21T20:57:42.404Z,24.47
2018-01-21T21:00:10.365Z,16.37
2018-01-21T21:02:38.117Z,18.60
2018-01-21T21:05:05.873Z,20.10
2018-01-21T21:07:34.436Z,19.00
2018-01-21T21:10:02.997Z,20.90
2018-01-21T21:12:31.592Z,24.43
2018-01-21T21:14:59.273Z,23.40
2018-01-21T21:17:27.954Z,31.27
2018-01-21T21:19:55.642Z,27.87
2018-01-21T21:22:24.138Z,21.30
2018-01-21T21:24:52.596Z,20.53
2018-01-21T21:27:20.296Z,23.17
2018-01-21T21:29:48.002Z,12.83
2018-01-21T21:32:15.798Z,25.33
2018-01-21T21:34:43.464Z,21.07
2018-01-21T21:39:39.634Z,24.63
2018-01-21T21:42:07.266Z,29.43
2018-01-21T21:44:35.060Z,25.63
2018-01-21T21:47:02.722Z,23.03
2018-01-21T21:49:30.562Z,24.60
2018-01-21T21:51:58.200Z,29.13
2018-01-21T21:54:26.624Z,22.30
2018-01-21T21:56:54.300Z,16.17
2018-01-21T21:59:21.947Z,19.57
2018-01-21T22:01:49.588Z,27.80
2018-01-21T22:04:17.958Z,34.53
2018-01-21T22:06:45.647Z,147.10
2018-01-21T22:09:14.028Z,136.97
2018-01-21T22:11:42.440Z,124.10
2018-01-21T22:14:10.070Z,372.03
2018-01-21T22:16:38.543Z,158.50
2018-01-21T22:19:06.201Z,54.90
2018-01-21T22:21:34.625Z,93.53
2018-01-21T22:24:02.229Z,62.93
2018-01-21T22:26:29.834Z,29.30
2018-01-21T22:28:58.311Z,27.67
2018-01-21T22:31:25.935Z,42.17
2018-01-21T22:33:53.544Z,35.80
2018-01-21T22:36:21.928Z,37.37
2018-01-21T22:38:49.597Z,23.30
2018-01-21T22:41:17.972Z,11.20
2018-01-21T22:43:45.579Z,10.70
2018-01-21T22:46:13.212Z,11.40
2018-01-21T22:48:41.589Z,8.10
2018-01-21T22:51:09.208Z,10.43
2018-01-21T22:53:36.812Z,11.50
2018-01-21T22:56:05.903Z,9.00
2018-01-21T22:58:33.566Z,10.23
2018-01-21T23:01:01.167Z,10.67
2018-01-21T23:03:29.540Z,14.10
2018-01-21T23:05:57.986Z,10.43
2018-01-21T23:08:25.577Z,9.93
2018-01-21T23:10:53.212Z,10.97
2018-01-21T23:13:20.806Z,8.63
2018-01-21T23:15:48.636Z,7.80
2018-01-21T23:18:16.235Z,6.70
2018-01-21T23:20:55.840Z,9.00
2018-01-21T23:23:23.518Z,8.17
2018-01-21T23:25:51.126Z,5.80
2018-01-21T23:28:19.534Z,11.20
2018-01-21T23:30:47.899Z,27.23
2018-01-21T23:33:16.287Z,17.77
2018-01-21T23:35:44.663Z,14.93
2018-01-21T23:38:12.319Z,10.17
2018-01-21T23:40:39.925Z,14.40
2018-01-21T23:43:07.525Z,15.07
2018-01-21T23:45:35.241Z,13.60
2018-01-21T23:48:03.617Z,14.60
2018-01-21T23:50:32.020Z,11.83
2018-01-21T23:52:59.633Z,15.00
2018-01-21T23:55:27.361Z,18.40
2018-01-21T23:57:54.981Z,7.63
